createdAt,value
2022-12-01T00:00:23.384Z,169
2022-12-01T00:00:53.836Z,168
2022-12-01T00:01:25.869Z,156
2022-12-01T00:01:57.850Z,157
2022-12-01T00:02:30.225Z,177
2022-12-01T00:03:02.266Z,200
2022-12-01T00:03:33.822Z,144
2022-12-01T00:04:05.895Z,154
2022-12-01T00:04:37.780Z,171
2022-12-01T00:05:09.938Z,137
2022-12-01T00:05:41.633Z,156
2022-12-01T00:06:13.813Z,158
2022-12-01T00:06:45.552Z,161
2022-12-01T00:07:17.551Z,176
2022-12-01T00:07:49.667Z,175
2022-12-01T00:08:21.552Z,176
2022-12-01T00:08:53.678Z,185
2022-12-01T00:09:25.696Z,197
2022-12-01T00:09:57.371Z,192
2022-12-01T00:10:29.702Z,191
2022-12-01T00:11:01.983Z,189
2022-12-01T00:11:33.420Z,190
2022-12-01T00:11:49.636Z,190
2022-12-01T00:12:21.441Z,189
2022-12-01T00:13:05.962Z,189
2022-12-01T00:13:37.516Z,188
2022-12-01T00:14:09.236Z,188
2022-12-01T00:14:41.321Z,133
2022-12-01T00:15:14.757Z,178
2022-12-01T00:15:45.460Z,174
2022-12-01T00:16:17.233Z,173
2022-12-01T00:16:49.470Z,188
2022-12-01T00:17:05.907Z,189
2022-12-01T00:17:37.025Z,183
2022-12-01T00:18:21.187Z,163
2022-12-01T00:18:52.955Z,94
2022-12-01T00:19:25.014Z,119
2022-12-01T00:19:57.094Z,84
2022-12-01T00:20:29.510Z,120
2022-12-01T00:21:00.946Z,121
2022-12-01T00:21:33.019Z,116
2022-12-01T00:21:49.295Z,114
2022-12-01T00:22:33.012Z,120
2022-12-01T00:23:05.571Z,125
2022-12-01T00:23:36.769Z,115
2022-12-01T00:24:08.972Z,103
2022-12-01T00:24:40.890Z,116
2022-12-01T00:25:13.137Z,137
2022-12-01T00:25:45.055Z,93
2022-12-01T00:26:16.778Z,93
2022-12-01T00:26:48.906Z,96
2022-12-01T00:27:20.801Z,97
2022-12-01T00:27:52.546Z,113
2022-12-01T00:28:24.703Z,113
2022-12-01T00:28:56.724Z,121
2022-12-01T00:29:28.790Z,163
2022-12-01T00:30:01.567Z,175
2022-12-01T00:30:32.593Z,176
2022-12-01T00:31:05.142Z,173
2022-12-01T00:31:36.735Z,172
2022-12-01T00:32:08.579Z,173
2022-12-01T00:32:40.451Z,171
2022-12-01T00:33:12.487Z,171
2022-12-01T00:33:44.604Z,171
2022-12-01T00:34:16.307Z,171
2022-12-01T00:34:48.611Z,164
2022-12-01T00:35:05.514Z,162
2022-12-01T00:35:36.394Z,168
2022-12-01T00:36:20.474Z,143
2022-12-01T00:36:52.251Z,99
2022-12-01T00:37:24.523Z,108
2022-12-01T00:37:56.364Z,112
2022-12-01T00:38:28.323Z,112
2022-12-01T00:39:00.358Z,111
2022-12-01T00:39:32.223Z,138
2022-12-01T00:39:48.622Z,166
2022-12-01T00:40:32.564Z,90
2022-12-01T00:41:05.004Z,36
2022-12-01T00:41:36.265Z,92
2022-12-01T00:42:13.113Z,92
2022-12-01T00:42:40.073Z,92
2022-12-01T00:43:12.314Z,92
2022-12-01T00:43:44.128Z,92
2022-12-01T00:44:16.021Z,92
2022-12-01T00:44:48.319Z,92
2022-12-01T00:45:20.463Z,91
2022-12-01T00:45:51.914Z,92
2022-12-01T00:46:24.084Z,92
2022-12-01T00:46:56.093Z,92
2022-12-01T00:47:27.849Z,91
2022-12-01T00:47:59.937Z,92
2022-12-01T00:48:31.842Z,126
2022-12-01T00:48:48.309Z,127
2022-12-01T00:49:19.766Z,125
2022-12-01T00:49:35.759Z,123
2022-12-01T00:50:08.059Z,119
2022-12-01T00:50:39.748Z,95
2022-12-01T00:51:11.795Z,162
2022-12-01T00:51:43.958Z,169
2022-12-01T00:52:15.573Z,170
2022-12-01T00:52:47.743Z,145
2022-12-01T00:53:04.208Z,145
2022-12-01T00:53:35.528Z,141
2022-12-01T00:54:19.875Z,146
2022-12-01T00:54:51.523Z,146
2022-12-01T00:55:23.973Z,146
2022-12-01T00:55:55.682Z,133
2022-12-01T00:56:27.504Z,133
2022-12-01T00:56:59.485Z,132
2022-12-01T00:57:31.530Z,133
2022-12-01T00:57:47.811Z,133
2022-12-01T00:58:31.477Z,133
2022-12-01T00:59:04.407Z,133
2022-12-01T00:59:35.352Z,131
2022-12-01T01:00:08.378Z,120
2022-12-01T01:00:39.449Z,120
2022-12-01T01:01:11.488Z,117
2022-12-01T01:01:43.236Z,114
2022-12-01T01:02:15.479Z,105
2022-12-01T01:02:47.342Z,96
2022-12-01T01:03:19.562Z,108
2022-12-01T01:03:51.069Z,106
2022-12-01T01:04:23.198Z,101
2022-12-01T01:04:55.239Z,102
2022-12-01T01:05:27.523Z,102
2022-12-01T01:05:59.090Z,102
2022-12-01T01:06:31.025Z,102
2022-12-01T01:06:47.360Z,102
2022-12-01T01:07:19.248Z,102
2022-12-01T01:07:35.349Z,102
2022-12-01T01:08:06.956Z,102
2022-12-01T01:08:39.096Z,102
2022-12-01T01:09:10.982Z,101
2022-12-01T01:09:42.980Z,102
2022-12-01T01:10:15.401Z,97
2022-12-01T01:10:46.885Z,106
2022-12-01T01:11:03.746Z,107
2022-12-01T01:11:34.993Z,108
2022-12-01T01:12:19.075Z,108
2022-12-01T01:12:50.812Z,108
2022-12-01T01:13:06.803Z,108
2022-12-01T01:13:38.741Z,108
2022-12-01T01:14:22.899Z,108
2022-12-01T01:14:54.762Z,95
2022-12-01T01:15:27.084Z,112
2022-12-01T01:15:58.801Z,120
2022-12-01T01:16:30.885Z,97
2022-12-01T01:17:03.508Z,97
2022-12-01T01:17:34.612Z,97
2022-12-01T01:18:06.702Z,97
2022-12-01T01:18:38.751Z,97
2022-12-01T01:19:10.492Z,97
2022-12-01T01:19:42.540Z,91
2022-12-01T01:20:14.796Z,84
2022-12-01T01:20:46.636Z,96
2022-12-01T01:21:18.769Z,135
2022-12-01T01:21:34.569Z,110
2022-12-01T01:22:06.502Z,127
2022-12-01T01:22:50.390Z,118
2022-12-01T01:23:22.465Z,123
2022-12-01T01:23:54.420Z,83
2022-12-01T01:24:26.349Z,80
2022-12-01T01:24:58.375Z,112
2022-12-01T01:25:30.928Z,112
2022-12-01T01:26:02.823Z,112
2022-12-01T01:26:18.610Z,121
2022-12-01T01:27:03.006Z,119
2022-12-01T01:27:34.259Z,117
2022-12-01T01:28:06.298Z,114
2022-12-01T01:28:38.336Z,148
2022-12-01T01:29:10.098Z,136
2022-12-01T01:29:42.194Z,87
2022-12-01T01:30:15.632Z,88
2022-12-01T01:30:46.077Z,88
2022-12-01T01:31:03.286Z,88
2022-12-01T01:31:34.073Z,87
2022-12-01T01:32:18.079Z,80
2022-12-01T01:32:50.250Z,94
2022-12-01T01:33:21.997Z,116
2022-12-01T01:33:54.116Z,88
2022-12-01T01:34:26.130Z,106
2022-12-01T01:34:58.088Z,129
2022-12-01T01:35:30.107Z,95
2022-12-01T01:35:45.990Z,94
2022-12-01T01:36:29.749Z,92
2022-12-01T01:37:02.398Z,115
2022-12-01T01:37:34.096Z,80
2022-12-01T01:38:05.885Z,74
2022-12-01T01:38:37.626Z,138
2022-12-01T01:39:09.931Z,144
2022-12-01T01:39:41.900Z,87
2022-12-01T01:40:13.759Z,104
2022-12-01T01:40:45.765Z,106
2022-12-01T01:41:17.957Z,74
2022-12-01T01:41:49.701Z,88
2022-12-01T01:42:21.464Z,97
2022-12-01T01:42:53.791Z,98
2022-12-01T01:43:25.550Z,359
2022-12-01T01:43:57.666Z,88
2022-12-01T01:44:29.459Z,97
2022-12-01T01:44:45.632Z,97
2022-12-01T01:45:18.051Z,114
2022-12-01T01:45:33.561Z,125
2022-12-01T01:46:05.830Z,152
2022-12-01T01:46:37.287Z,77
2022-12-01T01:47:09.545Z,106
2022-12-01T01:47:41.369Z,110
2022-12-01T01:48:13.388Z,144
2022-12-01T01:48:45.564Z,185
2022-12-01T01:49:01.626Z,110
2022-12-01T01:49:33.188Z,79
2022-12-01T01:50:17.778Z,93
2022-12-01T01:50:49.476Z,82
2022-12-01T01:51:21.219Z,79
2022-12-01T01:51:53.087Z,81
2022-12-01T01:52:25.451Z,81
2022-12-01T01:52:57.288Z,81
2022-12-01T01:53:29.177Z,80
2022-12-01T01:53:45.435Z,112
2022-12-01T01:54:29.131Z,121
2022-12-01T01:55:01.358Z,84
2022-12-01T01:55:33.147Z,143
2022-12-01T01:56:05.433Z,143
2022-12-01T01:56:37.070Z,117
2022-12-01T01:57:09.106Z,164
2022-12-01T01:57:41.055Z,154
2022-12-01T01:58:12.972Z,155
2022-12-01T01:58:45.070Z,108
2022-12-01T01:59:16.863Z,106
2022-12-01T01:59:49.415Z,106
2022-12-01T02:00:21.210Z,106
2022-12-01T02:00:52.762Z,106
2022-12-01T02:01:25.037Z,102
2022-12-01T02:01:56.883Z,115
2022-12-01T02:02:28.756Z,90
2022-12-01T02:02:45.130Z,88
2022-12-01T02:03:16.636Z,90
2022-12-01T02:03:32.799Z,105
2022-12-01T02:04:05.212Z,190
2022-12-01T02:04:36.633Z,120
2022-12-01T02:05:09.010Z,107
2022-12-01T02:05:40.678Z,124
2022-12-01T02:06:12.662Z,91
2022-12-01T02:06:44.705Z,89
2022-12-01T02:07:00.676Z,105
2022-12-01T02:07:32.748Z,149
2022-12-01T02:08:16.520Z,162
2022-12-01T02:08:48.706Z,162
2022-12-01T02:09:20.357Z,160
2022-12-01T02:09:52.360Z,158
2022-12-01T02:10:24.823Z,145
2022-12-01T02:10:56.544Z,108
2022-12-01T02:11:28.426Z,91
2022-12-01T02:11:44.655Z,91
2022-12-01T02:12:28.384Z,154
2022-12-01T02:13:00.429Z,123
2022-12-01T02:13:32.441Z,94
2022-12-01T02:14:04.844Z,116
2022-12-01T02:14:36.298Z,114
2022-12-01T02:15:09.341Z,111
2022-12-01T02:15:40.322Z,113
2022-12-01T02:16:12.226Z,114
2022-12-01T02:16:44.259Z,114
2022-12-01T02:17:16.277Z,114
2022-12-01T02:17:48.311Z,114
2022-12-01T02:18:19.975Z,114
2022-12-01T02:18:52.164Z,232
2022-12-01T02:19:24.175Z,306
2022-12-01T02:19:56.079Z,1
2022-12-01T02:20:28.280Z,343
2022-12-01T02:20:44.127Z,340
2022-12-01T02:21:16.173Z,352
2022-12-01T02:21:31.973Z,355
2022-12-01T02:22:04.974Z,344
2022-12-01T02:22:35.887Z,41
2022-12-01T02:23:07.872Z,93
2022-12-01T02:23:40.178Z,103
2022-12-01T02:24:11.988Z,98
2022-12-01T02:24:43.785Z,97
2022-12-01T02:24:59.939Z,92
2022-12-01T02:25:32.169Z,90
2022-12-01T02:26:15.886Z,91
2022-12-01T02:26:47.914Z,91
2022-12-01T02:27:19.727Z,91
2022-12-01T02:27:51.676Z,100
2022-12-01T02:28:24.029Z,134
2022-12-01T02:28:55.776Z,129
2022-12-01T02:29:27.661Z,127
2022-12-01T02:29:43.837Z,127
2022-12-01T02:30:27.981Z,127
2022-12-01T02:30:59.777Z,127
2022-12-01T02:31:31.699Z,128
2022-12-01T02:32:04.320Z,129
2022-12-01T02:32:35.457Z,129
2022-12-01T02:33:07.482Z,129
2022-12-01T02:33:39.729Z,120
2022-12-01T02:34:11.402Z,121
2022-12-01T02:34:43.339Z,120
2022-12-01T02:35:15.858Z,128
2022-12-01T02:35:47.416Z,117
2022-12-01T02:36:19.528Z,125
2022-12-01T02:36:51.425Z,134
2022-12-01T02:37:23.226Z,133
2022-12-01T02:37:55.450Z,119
2022-12-01T02:38:27.214Z,119
2022-12-01T02:38:59.275Z,119
2022-12-01T02:39:31.293Z,93
2022-12-01T02:40:04.576Z,98
2022-12-01T02:40:35.048Z,102
2022-12-01T02:41:07.092Z,102
2022-12-01T02:41:39.325Z,100
2022-12-01T02:42:11.187Z,125
2022-12-01T02:42:43.099Z,125
2022-12-01T02:42:59.061Z,124
2022-12-01T02:43:30.916Z,122
2022-12-01T02:44:15.285Z,114
2022-12-01T02:44:47.063Z,98
2022-12-01T02:45:19.523Z,117
2022-12-01T02:45:51.033Z,117
2022-12-01T02:46:22.995Z,117
2022-12-01T02:46:55.137Z,125
2022-12-01T02:47:26.857Z,134
2022-12-01T02:47:43.102Z,134
2022-12-01T02:48:26.970Z,129
2022-12-01T02:48:58.894Z,117
2022-12-01T02:49:30.966Z,110
2022-12-01T02:50:04.347Z,112
2022-12-01T02:50:19.103Z,121
2022-12-01T02:50:50.992Z,103
2022-12-01T02:51:34.932Z,123
2022-12-01T02:52:06.770Z,122
2022-12-01T02:52:38.671Z,93
2022-12-01T02:53:10.835Z,98
2022-12-01T02:53:42.691Z,109
2022-12-01T02:54:14.865Z,124
2022-12-01T02:54:46.531Z,121
2022-12-01T02:55:18.936Z,132
2022-12-01T02:55:50.598Z,97
2022-12-01T02:56:22.549Z,90
2022-12-01T02:56:54.591Z,100
2022-12-01T02:57:26.374Z,98
2022-12-01T02:57:58.609Z,96
2022-12-01T02:58:30.577Z,94
2022-12-01T02:59:03.054Z,93
2022-12-01T02:59:34.508Z,108
2022-12-01T03:00:07.558Z,98
2022-12-01T03:00:38.426Z,133
2022-12-01T03:01:10.288Z,135
2022-12-01T03:01:42.425Z,122
2022-12-01T03:02:14.256Z,84
2022-12-01T03:02:46.311Z,115
2022-12-01T03:03:18.505Z,123
2022-12-01T03:03:50.172Z,125
2022-12-01T03:04:22.224Z,115
2022-12-01T03:04:54.492Z,111
2022-12-01T03:05:26.301Z,115
2022-12-01T03:05:42.407Z,107
2022-12-01T03:06:25.978Z,121
2022-12-01T03:06:58.254Z,104
2022-12-01T03:07:30.258Z,83
2022-12-01T03:08:02.495Z,114
2022-12-01T03:08:18.321Z,129
2022-12-01T03:08:50.050Z,137
2022-12-01T03:09:34.083Z,140
2022-12-01T03:10:06.217Z,141
2022-12-01T03:10:37.826Z,141
2022-12-01T03:11:09.987Z,141
2022-12-01T03:11:42.116Z,141
2022-12-01T03:12:14.097Z,141
2022-12-01T03:12:45.865Z,141
2022-12-01T03:13:17.857Z,127
2022-12-01T03:13:49.965Z,125
2022-12-01T03:14:21.819Z,120
2022-12-01T03:14:53.804Z,120
2022-12-01T03:15:26.241Z,119
2022-12-01T03:15:57.862Z,113
2022-12-01T03:16:29.899Z,112
2022-12-01T03:17:01.945Z,14
2022-12-01T03:17:33.621Z,79
2022-12-01T03:18:05.724Z,81
2022-12-01T03:18:37.738Z,81
2022-12-01T03:19:09.676Z,84
2022-12-01T03:19:41.557Z,81
2022-12-01T03:20:14.415Z,81
2022-12-01T03:20:45.585Z,81
2022-12-01T03:21:17.374Z,29
2022-12-01T03:21:49.620Z,92
2022-12-01T03:22:21.464Z,76
2022-12-01T03:22:53.504Z,226
2022-12-01T03:23:25.452Z,175
2022-12-01T03:23:41.620Z,146
2022-12-01T03:24:25.470Z,146
2022-12-01T03:24:57.400Z,146
2022-12-01T03:25:29.708Z,146
2022-12-01T03:26:01.995Z,137
2022-12-01T03:26:33.440Z,129
2022-12-01T03:27:05.537Z,129
2022-12-01T03:27:37.314Z,126
2022-12-01T03:28:21.907Z,115
2022-12-01T03:28:41.189Z,112
2022-12-01T03:29:13.297Z,112
2022-12-01T03:29:45.621Z,113
2022-12-01T03:30:18.307Z,119
2022-12-01T03:30:49.196Z,119
2022-12-01T03:31:21.168Z,119
2022-12-01T03:31:53.128Z,111
2022-12-01T03:32:25.099Z,90
2022-12-01T03:32:41.146Z,90
2022-12-01T03:33:12.879Z,94
2022-12-01T03:33:29.025Z,97
2022-12-01T03:34:00.839Z,92
2022-12-01T03:34:32.861Z,104
2022-12-01T03:35:05.890Z,84
2022-12-01T03:35:36.922Z,90
2022-12-01T03:36:09.016Z,90
2022-12-01T03:36:40.917Z,89
2022-12-01T03:36:56.877Z,89
2022-12-01T03:37:28.794Z,90
2022-12-01T03:38:12.837Z,90
2022-12-01T03:38:44.637Z,90
2022-12-01T03:39:16.649Z,92
2022-12-01T03:39:49.238Z,104
2022-12-01T03:40:20.991Z,98
2022-12-01T03:40:52.616Z,97
2022-12-01T03:41:24.885Z,80
2022-12-01T03:41:40.805Z,77
2022-12-01T03:42:24.741Z,98
2022-12-01T03:42:56.568Z,98
2022-12-01T03:43:28.673Z,98
2022-12-01T03:44:00.512Z,96
2022-12-01T03:44:32.522Z,78
2022-12-01T03:45:06.685Z,155
2022-12-01T03:45:36.339Z,149
2022-12-01T03:46:08.455Z,121
2022-12-01T03:46:40.612Z,105
2022-12-01T03:47:12.515Z,102
2022-12-01T03:47:44.584Z,126
2022-12-01T03:48:16.302Z,62
2022-12-01T03:48:48.513Z,92
2022-12-01T03:49:20.356Z,54
2022-12-01T03:49:52.342Z,74
2022-12-01T03:50:24.602Z,104
2022-12-01T03:50:40.545Z,74
2022-12-01T03:51:12.307Z,95
2022-12-01T03:51:28.306Z,103
2022-12-01T03:52:00.443Z,158
2022-12-01T03:52:32.194Z,107
2022-12-01T03:53:04.893Z,118
2022-12-01T03:53:36.118Z,135
2022-12-01T03:54:08.083Z,135
2022-12-01T03:54:40.037Z,134
2022-12-01T03:54:56.283Z,124
2022-12-01T03:55:28.290Z,121
2022-12-01T03:56:12.171Z,121
2022-12-01T03:56:43.980Z,121
2022-12-01T03:57:17.316Z,121
2022-12-01T03:57:47.956Z,97
2022-12-01T03:58:20.140Z,96
2022-12-01T03:58:51.852Z,95
2022-12-01T03:59:23.983Z,95
2022-12-01T03:59:39.926Z,95
2022-12-01T04:00:24.081Z,95
2022-12-01T04:00:55.944Z,85
2022-12-01T04:01:27.802Z,85
2022-12-01T04:01:59.779Z,85
2022-12-01T04:02:31.927Z,154
2022-12-01T04:03:05.002Z,93
2022-12-01T04:03:35.730Z,83
2022-12-01T04:04:08.459Z,121
2022-12-01T04:04:39.781Z,121
2022-12-01T04:05:11.906Z,97
2022-12-01T04:05:43.810Z,156
2022-12-01T04:06:15.636Z,53
2022-12-01T04:06:47.582Z,78
2022-12-01T04:07:19.784Z,78
2022-12-01T04:07:51.592Z,79
2022-12-01T04:08:23.437Z,77
2022-12-01T04:08:55.615Z,95
2022-12-01T04:09:27.524Z,93
2022-12-01T04:09:59.465Z,68
2022-12-01T04:10:31.672Z,94
2022-12-01T04:11:04.378Z,75
2022-12-01T04:11:35.439Z,96
2022-12-01T04:12:07.477Z,96
2022-12-01T04:12:39.307Z,79
2022-12-01T04:12:55.569Z,82
2022-12-01T04:13:27.185Z,68
2022-12-01T04:14:11.357Z,77
2022-12-01T04:14:43.296Z,78
2022-12-01T04:15:16.585Z,78
2022-12-01T04:15:47.320Z,78
2022-12-01T04:16:19.545Z,78
2022-12-01T04:16:50.965Z,78
2022-12-01T04:17:23.216Z,158
2022-12-01T04:17:39.395Z,162
2022-12-01T04:18:23.120Z,178
2022-12-01T04:18:55.293Z,95
2022-12-01T04:19:26.906Z,95
2022-12-01T04:19:59.128Z,163
2022-12-01T04:20:15.488Z,216
2022-12-01T04:20:46.941Z,123
2022-12-01T04:21:31.116Z,109
2022-12-01T04:22:04.340Z,111
2022-12-01T04:22:35.115Z,89
2022-12-01T04:23:06.936Z,149
2022-12-01T04:23:39.093Z,136
2022-12-01T04:24:10.827Z,106
2022-12-01T04:24:26.786Z,89
2022-12-01T04:24:58.987Z,103
2022-12-01T04:25:43.021Z,107
2022-12-01T04:26:16.029Z,115
2022-12-01T04:26:46.820Z,125
2022-12-01T04:27:18.835Z,84
2022-12-01T04:27:50.683Z,84
2022-12-01T04:28:22.770Z,84
2022-12-01T04:28:54.661Z,84
2022-12-01T04:29:10.781Z,84
2022-12-01T04:29:54.718Z,84
2022-12-01T04:30:27.034Z,84
2022-12-01T04:30:58.880Z,84
2022-12-01T04:31:30.504Z,84
2022-12-01T04:32:03.666Z,84
2022-12-01T04:32:34.899Z,102
2022-12-01T04:33:06.563Z,96
2022-12-01T04:33:38.574Z,114
2022-12-01T04:33:54.708Z,115
2022-12-01T04:34:26.357Z,89
2022-12-01T04:35:10.734Z,89
2022-12-01T04:35:42.688Z,89
2022-12-01T04:36:14.520Z,89
2022-12-01T04:36:46.333Z,106
2022-12-01T04:37:18.316Z,104
2022-12-01T04:37:50.447Z,122
2022-12-01T04:38:26.113Z,122
2022-12-01T04:38:54.179Z,122
2022-12-01T04:39:26.229Z,122
2022-12-01T04:39:58.269Z,96
2022-12-01T04:40:30.439Z,96
2022-12-01T04:41:02.747Z,97
2022-12-01T04:41:34.421Z,102
2022-12-01T04:42:06.146Z,80
2022-12-01T04:42:38.052Z,63
2022-12-01T04:42:54.219Z,141
2022-12-01T04:43:38.047Z,182
2022-12-01T04:44:10.306Z,176
2022-12-01T04:44:42.057Z,200
2022-12-01T04:45:15.890Z,207
2022-12-01T04:45:46.065Z,208
2022-12-01T04:46:18.132Z,204
2022-12-01T04:46:50.212Z,157
2022-12-01T04:47:21.996Z,127
2022-12-01T04:47:38.071Z,127
2022-12-01T04:48:09.806Z,127
2022-12-01T04:48:25.929Z,127
2022-12-01T04:48:57.963Z,127
2022-12-01T04:49:29.813Z,127
2022-12-01T04:50:03.062Z,127
2022-12-01T04:50:34.016Z,127
2022-12-01T04:51:05.911Z,127
2022-12-01T04:51:37.705Z,127
2022-12-01T04:51:53.808Z,127
2022-12-01T04:52:28.355Z,127
2022-12-01T04:53:09.801Z,127
2022-12-01T04:53:41.617Z,127
2022-12-01T04:54:13.644Z,127
2022-12-01T04:54:45.613Z,127
2022-12-01T04:55:17.996Z,127
2022-12-01T04:55:49.739Z,127
2022-12-01T04:56:21.447Z,127
2022-12-01T04:56:37.567Z,127
2022-12-01T04:57:23.027Z,127
2022-12-01T04:57:54.880Z,127
2022-12-01T04:58:25.527Z,127
2022-12-01T04:58:57.294Z,127
2022-12-01T04:59:29.383Z,127
2022-12-01T05:00:04.508Z,127
2022-12-01T05:00:33.641Z,127
2022-12-01T05:01:05.918Z,127
2022-12-01T05:01:37.243Z,127
2022-12-01T05:02:09.450Z,127
2022-12-01T05:02:41.359Z,127
2022-12-01T05:03:15.199Z,127
2022-12-01T05:03:45.341Z,127
2022-12-01T05:04:17.281Z,179
2022-12-01T05:04:49.116Z,196
2022-12-01T05:05:21.365Z,193
2022-12-01T05:05:53.143Z,191
2022-12-01T05:06:25.534Z,191
2022-12-01T05:06:57.117Z,189
2022-12-01T05:07:29.029Z,189
2022-12-01T05:08:01.357Z,172
2022-12-01T05:08:33.028Z,172
2022-12-01T05:09:05.557Z,172
2022-12-01T05:09:36.929Z,171
2022-12-01T05:09:52.998Z,172
2022-12-01T05:10:25.181Z,172
2022-12-01T05:11:08.972Z,172
2022-12-01T05:11:40.769Z,172
2022-12-01T05:12:12.765Z,151
2022-12-01T05:12:45.045Z,96
2022-12-01T05:13:16.787Z,84
2022-12-01T05:13:48.682Z,125
2022-12-01T05:14:20.801Z,133
2022-12-01T05:14:52.703Z,133
2022-12-01T05:15:25.193Z,134
2022-12-01T05:15:56.838Z,216
2022-12-01T05:16:28.648Z,215
2022-12-01T05:17:00.640Z,215
2022-12-01T05:17:36.800Z,205
2022-12-01T05:18:05.379Z,207
2022-12-01T05:18:36.479Z,211
2022-12-01T05:18:52.687Z,211
2022-12-01T05:19:36.569Z,213
2022-12-01T05:20:09.060Z,216
2022-12-01T05:20:40.793Z,217
2022-12-01T05:21:12.465Z,217
2022-12-01T05:21:44.600Z,265
2022-12-01T05:22:16.431Z,222
2022-12-01T05:23:04.391Z,217
2022-12-01T05:23:20.485Z,217
2022-12-01T05:23:36.463Z,217
2022-12-01T05:24:08.364Z,217
2022-12-01T05:24:24.475Z,217
2022-12-01T05:24:56.435Z,217
2022-12-01T05:25:28.598Z,217
2022-12-01T05:26:00.288Z,217
2022-12-01T05:26:32.283Z,233
2022-12-01T05:27:05.157Z,235
2022-12-01T05:27:36.267Z,230
2022-12-01T05:27:52.418Z,217
2022-12-01T05:28:24.475Z,205
2022-12-01T05:29:08.188Z,194
2022-12-01T05:29:40.377Z,194
2022-12-01T05:30:13.438Z,182
2022-12-01T05:30:44.206Z,160
2022-12-01T05:31:16.283Z,240
2022-12-01T05:31:48.226Z,219
2022-12-01T05:32:20.137Z,215
2022-12-01T05:32:36.252Z,214
2022-12-01T05:33:20.102Z,207
2022-12-01T05:33:51.995Z,229
2022-12-01T05:34:23.800Z,261
2022-12-01T05:34:55.991Z,253
2022-12-01T05:35:28.070Z,248
2022-12-01T05:35:59.958Z,223
2022-12-01T05:36:31.932Z,228
2022-12-01T05:37:04.629Z,209
2022-12-01T05:37:35.772Z,209
2022-12-01T05:38:08.287Z,209
2022-12-01T05:38:39.580Z,210
2022-12-01T05:39:11.663Z,190
2022-12-01T05:39:44.050Z,186
2022-12-01T05:40:15.938Z,190
2022-12-01T05:40:47.536Z,163
2022-12-01T05:41:19.825Z,209
2022-12-01T05:41:35.723Z,193
2022-12-01T05:42:07.573Z,136
2022-12-01T05:42:23.615Z,110
2022-12-01T05:42:55.736Z,95
2022-12-01T05:43:29.567Z,95
2022-12-01T05:43:59.572Z,105
2022-12-01T05:44:31.547Z,113
2022-12-01T05:45:06.988Z,114
2022-12-01T05:45:35.642Z,114
2022-12-01T05:45:51.770Z,108
2022-12-01T05:46:23.344Z,117
2022-12-01T05:47:07.465Z,117
2022-12-01T05:47:39.560Z,117
2022-12-01T05:48:11.396Z,117
2022-12-01T05:48:43.368Z,117
2022-12-01T05:49:15.517Z,117
2022-12-01T05:49:47.640Z,117
2022-12-01T05:50:19.649Z,117
2022-12-01T05:50:35.638Z,117
2022-12-01T05:51:19.354Z,117
2022-12-01T05:51:51.424Z,117
2022-12-01T05:52:23.240Z,117
2022-12-01T05:52:55.307Z,117
2022-12-01T05:53:11.416Z,117
2022-12-01T05:53:43.043Z,117
2022-12-01T05:54:27.136Z,117
2022-12-01T05:54:59.325Z,117
2022-12-01T05:55:31.263Z,117
2022-12-01T05:56:04.203Z,117
2022-12-01T05:56:35.349Z,117
2022-12-01T05:57:07.039Z,155
2022-12-01T05:57:38.845Z,148
2022-12-01T05:58:11.250Z,148
2022-12-01T05:58:42.994Z,139
2022-12-01T05:59:14.947Z,144
2022-12-01T05:59:47.418Z,131
2022-12-01T06:00:19.325Z,131
2022-12-01T06:00:50.889Z,131
2022-12-01T06:01:22.696Z,166
2022-12-01T06:01:54.860Z,155
2022-12-01T06:02:26.975Z,160
2022-12-01T06:02:59.073Z,160
2022-12-01T06:03:30.689Z,136
2022-12-01T06:04:03.891Z,128
2022-12-01T06:04:34.962Z,255
2022-12-01T06:05:06.875Z,232
2022-12-01T06:05:38.460Z,231
2022-12-01T06:06:10.721Z,248
2022-12-01T06:06:42.622Z,219
2022-12-01T06:07:14.782Z,244
2022-12-01T06:07:46.516Z,215
2022-12-01T06:08:18.545Z,215
2022-12-01T06:08:50.537Z,216
2022-12-01T06:09:22.476Z,220
2022-12-01T06:09:54.579Z,218
2022-12-01T06:10:26.819Z,172
2022-12-01T06:10:58.452Z,151
2022-12-01T06:11:30.576Z,114
2022-12-01T06:12:03.032Z,123
2022-12-01T06:12:34.516Z,124
2022-12-01T06:12:50.518Z,101
2022-12-01T06:13:34.373Z,110
2022-12-01T06:14:06.343Z,110
2022-12-01T06:14:38.144Z,151
2022-12-01T06:15:11.332Z,151
2022-12-01T06:15:42.297Z,151
2022-12-01T06:16:14.462Z,137
2022-12-01T06:16:45.990Z,144
2022-12-01T06:17:18.084Z,101
2022-12-01T06:17:50.291Z,116
2022-12-01T06:18:22.103Z,123
2022-12-01T06:18:54.197Z,124
2022-12-01T06:19:26.087Z,145
2022-12-01T06:19:57.937Z,144
2022-12-01T06:20:30.591Z,144
2022-12-01T06:21:02.374Z,132
2022-12-01T06:21:33.832Z,144
2022-12-01T06:21:50.116Z,144
2022-12-01T06:22:21.955Z,146
2022-12-01T06:23:05.972Z,145
2022-12-01T06:23:37.740Z,149
2022-12-01T06:24:09.826Z,149
2022-12-01T06:24:42.069Z,149
2022-12-01T06:25:14.377Z,149
2022-12-01T06:25:45.762Z,137
2022-12-01T06:26:17.734Z,148
2022-12-01T06:26:34.230Z,148
2022-12-01T06:27:17.785Z,208
2022-12-01T06:27:49.674Z,219
2022-12-01T06:28:21.784Z,229
2022-12-01T06:28:53.570Z,221
2022-12-01T06:29:25.589Z,217
2022-12-01T06:29:57.768Z,214
2022-12-01T06:30:30.520Z,197
2022-12-01T06:31:03.752Z,191
2022-12-01T06:31:33.853Z,192
2022-12-01T06:32:05.927Z,192
2022-12-01T06:32:37.304Z,194
2022-12-01T06:33:09.530Z,194
2022-12-01T06:33:41.615Z,194
2022-12-01T06:34:13.492Z,191
2022-12-01T06:34:45.594Z,190
2022-12-01T06:35:17.484Z,147
2022-12-01T06:35:49.457Z,113
2022-12-01T06:36:21.604Z,136
2022-12-01T06:36:53.244Z,155
2022-12-01T06:37:25.394Z,158
2022-12-01T06:37:57.209Z,186
2022-12-01T06:38:29.347Z,187
2022-12-01T06:39:01.223Z,174
2022-12-01T06:39:33.191Z,175
2022-12-01T06:40:05.963Z,174
2022-12-01T06:40:37.200Z,174
2022-12-01T06:41:10.457Z,155
2022-12-01T06:41:41.221Z,154
2022-12-01T06:42:13.029Z,90
2022-12-01T06:42:45.329Z,91
2022-12-01T06:43:17.026Z,117
2022-12-01T06:43:49.111Z,126
2022-12-01T06:44:05.485Z,125
2022-12-01T06:44:36.951Z,134
2022-12-01T06:45:21.574Z,135
2022-12-01T06:45:57.762Z,135
2022-12-01T06:46:25.117Z,135
2022-12-01T06:46:56.813Z,133
2022-12-01T06:47:28.848Z,136
2022-12-01T06:48:01.215Z,135
2022-12-01T06:48:32.827Z,122
2022-12-01T06:48:49.006Z,125
2022-12-01T06:49:33.024Z,102
2022-12-01T06:50:05.927Z,121
2022-12-01T06:50:36.762Z,101
2022-12-01T06:51:10.922Z,87
2022-12-01T06:51:40.729Z,111
2022-12-01T06:52:12.892Z,124
2022-12-01T06:52:44.736Z,103
2022-12-01T06:53:16.616Z,113
2022-12-01T06:53:48.751Z,122
2022-12-01T06:54:20.872Z,125
2022-12-01T06:54:52.427Z,114
2022-12-01T06:55:26.902Z,122
2022-12-01T06:55:56.535Z,131
2022-12-01T06:56:28.526Z,132
2022-12-01T06:57:00.528Z,132
2022-12-01T06:57:32.564Z,131
2022-12-01T06:57:48.754Z,131
2022-12-01T06:58:20.465Z,131
2022-12-01T06:59:05.260Z,145
2022-12-01T06:59:36.244Z,145
2022-12-01T07:00:09.117Z,145
2022-12-01T07:00:40.356Z,145
2022-12-01T07:01:12.601Z,146
2022-12-01T07:01:44.348Z,150
2022-12-01T07:02:16.334Z,162
2022-12-01T07:02:32.591Z,148
2022-12-01T07:03:16.330Z,145
2022-12-01T07:03:48.437Z,155
2022-12-01T07:04:20.189Z,158
2022-12-01T07:04:52.330Z,158
2022-12-01T07:05:26.349Z,158
2022-12-01T07:05:56.168Z,141
2022-12-01T07:06:28.064Z,106
2022-12-01T07:07:00.034Z,117
2022-12-01T07:07:32.160Z,118
2022-12-01T07:08:05.042Z,130
2022-12-01T07:08:36.079Z,111
2022-12-01T07:09:07.922Z,96
2022-12-01T07:09:40.087Z,130
2022-12-01T07:10:12.435Z,134
2022-12-01T07:10:44.192Z,162
2022-12-01T07:11:16.068Z,166
2022-12-01T07:11:47.975Z,167
2022-12-01T07:12:19.981Z,176
2022-12-01T07:12:51.867Z,106
2022-12-01T07:13:25.781Z,149
2022-12-01T07:13:55.870Z,146
2022-12-01T07:14:27.693Z,156
2022-12-01T07:14:59.911Z,125
2022-12-01T07:15:34.834Z,125